FlightSource - Aviation Photo Database

World Wide Airport Lookup


Search by ICAO
Or
Search by City

FlightSource.ca - Aviation Photo Database - Bou Saada Airport Information
Airport Identification
Name: Bou Saada Airport
ICAO: DAAD
IATA: BUJ
Airport Location
City:
Region: 28
Country: Algeria
Continent: Africa
Latitude: 35.3325
Longitude: 4.20639
Airport Information
Type: Medium Airport
Elevation: 1506 Feet ASL
Flight Status: DAAD
More Info: DAAD
Airport Weather    
Metar: DAAD 221500Z 27010KT CAVOK 22/05 Q1024
TAF:


Advertisement